sensor_id;sensor_type;location;lat;lon;timestamp;pressure;altitude;pressure_sealevel;temperature;humidity
65157;BME280;52745;49.794;18.258;2022-09-09T00:00:18;98570.63;;;15.07;100.00
65157;BME280;52745;49.794;18.258;2022-09-09T00:03:16;98569.28;;;15.04;100.00
65157;BME280;52745;49.794;18.258;2022-09-09T00:06:01;98566.59;;;15.04;100.00
65157;BME280;52745;49.794;18.258;2022-09-09T00:11:09;98571.72;;;15.06;100.00
65157;BME280;52745;49.794;18.258;2022-09-09T00:13:52;98568.22;;;15.10;100.00
65157;BME280;52745;49.794;18.258;2022-09-09T00:16:22;98570.59;;;15.12;100.00
65157;BME280;52745;49.794;18.258;2022-09-09T00:21:37;98580.56;;;15.11;100.00
65157;BME280;52745;49.794;18.258;2022-09-09T00:24:34;98571.97;;;15.09;100.00
65157;BME280;52745;49.794;18.258;2022-09-09T00:27:10;98570.91;;;15.10;100.00
65157;BME280;52745;49.794;18.258;2022-09-09T00:29:51;98582.72;;;15.09;100.00
65157;BME280;52745;49.794;18.258;2022-09-09T00:32:20;98583.81;;;15.08;100.00
65157;BME280;52745;49.794;18.258;2022-09-09T00:34:51;98591.31;;;15.11;100.00
65157;BME280;52745;49.794;18.258;2022-09-09T00:37:20;98588.38;;;15.08;100.00
65157;BME280;52745;49.794;18.258;2022-09-09T00:39:48;98587.28;;;15.09;100.00
65157;BME280;52745;49.794;18.258;2022-09-09T00:42:30;98584.34;;;15.05;100.00
65157;BME280;52745;49.794;18.258;2022-09-09T00:45:37;98580.03;;;15.04;100.00
65157;BME280;52745;49.794;18.258;2022-09-09T00:48:10;98586.78;;;15.02;100.00
65157;BME280;52745;49.794;18.258;2022-09-09T00:50:53;98591.34;;;14.96;100.00
65157;BME280;52745;49.794;18.258;2022-09-09T00:56:14;98594.31;;;14.89;100.00
65157;BME280;52745;49.794;18.258;2022-09-09T01:01:26;98612.88;;;14.86;100.00
65157;BME280;52745;49.794;18.258;2022-09-09T01:03:54;98607.22;;;14.87;100.00
65157;BME280;52745;49.794;18.258;2022-09-09T01:06:31;98609.91;;;14.87;100.00
65157;BME280;52745;49.794;18.258;2022-09-09T01:12:01;98607.22;;;14.93;100.00
65157;BME280;52745;49.794;18.258;2022-09-09T01:17:05;98622.28;;;14.94;100.00
65157;BME280;52745;49.794;18.258;2022-09-09T01:28:09;98629.25;;;14.89;100.00
65157;BME280;52745;49.794;18.258;2022-09-09T01:30:40;98631.16;;;14.89;100.00
65157;BME280;52745;49.794;18.258;2022-09-09T01:33:19;98637.88;;;14.86;100.00
65157;BME280;52745;49.794;18.258;2022-09-09T01:38:25;98636.25;;;14.85;100.00
65157;BME280;52745;49.794;18.258;2022-09-09T01:40:53;98632.22;;;14.83;100.00
65157;BME280;52745;49.794;18.258;2022-09-09T01:43:25;98633.56;;;14.80;100.00
65157;BME280;52745;49.794;18.258;2022-09-09T01:45:55;98631.44;;;14.82;100.00
65157;BME280;52745;49.794;18.258;2022-09-09T01:48:23;98627.41;;;14.80;100.00
65157;BME280;52745;49.794;18.258;2022-09-09T01:51:00;98626.31;;;14.86;100.00
65157;BME280;52745;49.794;18.258;2022-09-09T01:53:27;98641.88;;;14.94;100.00
65157;BME280;52745;49.794;18.258;2022-09-09T02:01:40;98642.97;;;14.93;100.00
65157;BME280;52745;49.794;18.258;2022-09-09T02:09:58;98634.09;;;14.98;100.00
65157;BME280;52745;49.794;18.258;2022-09-09T02:12:29;98621.75;;;14.97;100.00
65157;BME280;52745;49.794;18.258;2022-09-09T02:15:05;98630.59;;;14.92;100.00
65157;BME280;52745;49.794;18.258;2022-09-09T02:17:46;98640.84;;;14.90;100.00
65157;BME280;52745;49.794;18.258;2022-09-09T02:20:15;98634.66;;;14.84;100.00
65157;BME280;52745;49.794;18.258;2022-09-09T02:22:55;98635.72;;;14.78;100.00
65157;BME280;52745;49.794;18.258;2022-09-09T02:25:26;98631.69;;;14.76;100.00
65157;BME280;52745;49.794;18.258;2022-09-09T02:28:00;98632.25;;;14.73;100.00
65157;BME280;52745;49.794;18.258;2022-09-09T02:30:30;98640.56;;;14.71;100.00
65157;BME280;52745;49.794;18.258;2022-09-09T02:33:00;98649.44;;;14.66;100.00
65157;BME280;52745;49.794;18.258;2022-09-09T02:35:42;98655.38;;;14.63;100.00
65157;BME280;52745;49.794;18.258;2022-09-09T02:38:13;98643.78;;;14.63;100.00
65157;BME280;52745;49.794;18.258;2022-09-09T02:40:49;98655.09;;;14.60;100.00
65157;BME280;52745;49.794;18.258;2022-09-09T02:43:15;98649.97;;;14.58;100.00
65157;BME280;52745;49.794;18.258;2022-09-09T02:48:52;98655.59;;;14.57;100.00
65157;BME280;52745;49.794;18.258;2022-09-09T02:51:38;98664.44;;;14.52;100.00
65157;BME280;52745;49.794;18.258;2022-09-09T02:57:04;98656.91;;;14.54;100.00
65157;BME280;52745;49.794;18.258;2022-09-09T02:59:38;98667.44;;;14.56;100.00
65157;BME280;52745;49.794;18.258;2022-09-09T03:02:05;98667.19;;;14.57;100.00
65157;BME280;52745;49.794;18.258;2022-09-09T03:04:32;98670.41;;;14.59;100.00
65157;BME280;52745;49.794;18.258;2022-09-09T03:06:59;98662.06;;;14.61;100.00
65157;BME280;52745;49.794;18.258;2022-09-09T03:09:25;98664.75;;;14.61;100.00
65157;BME280;52745;49.794;18.258;2022-09-09T03:11:53;98667.16;;;14.62;100.00
65157;BME280;52745;49.794;18.258;2022-09-09T03:14:22;98670.41;;;14.59;100.00
65157;BME280;52745;49.794;18.258;2022-09-09T03:16:52;98680.06;;;14.55;100.00
65157;BME280;52745;49.794;18.258;2022-09-09T03:19:20;98675.19;;;14.52;100.00
65157;BME280;52745;49.794;18.258;2022-09-09T03:21:47;98685.44;;;14.55;100.00
65157;BME280;52745;49.794;18.258;2022-09-09T03:24:14;98685.94;;;14.52;100.00
65157;BME280;52745;49.794;18.258;2022-09-09T03:26:41;98682.19;;;14.53;100.00
65157;BME280;52745;49.794;18.258;2022-09-09T03:29:12;98681.63;;;14.51;100.00
65157;BME280;52745;49.794;18.258;2022-09-09T03:31:40;98678.41;;;14.49;100.00
65157;BME280;52745;49.794;18.258;2022-09-09T03:34:07;98683.25;;;14.52;100.00
65157;BME280;52745;49.794;18.258;2022-09-09T03:36:36;98677.38;;;14.55;100.00
65157;BME280;52745;49.794;18.258;2022-09-09T03:39:04;98675.78;;;14.59;100.00
65157;BME280;52745;49.794;18.258;2022-09-09T03:41:31;98685.69;;;14.59;100.00
65157;BME280;52745;49.794;18.258;2022-09-09T03:43:59;98687.84;;;14.57;100.00
65157;BME280;52745;49.794;18.258;2022-09-09T03:46:27;98683.25;;;14.52;100.00
65157;BME280;52745;49.794;18.258;2022-09-09T03:48:54;98689.69;;;14.51;100.00
65157;BME280;52745;49.794;18.258;2022-09-09T03:51:21;98685.69;;;14.48;100.00
65157;BME280;52745;49.794;18.258;2022-09-09T03:53:48;98683.25;;;14.47;100.00
65157;BME280;52745;49.794;18.258;2022-09-09T03:56:15;98689.72;;;14.46;100.00
65157;BME280;52745;49.794;18.258;2022-09-09T03:58:42;98690.75;;;14.45;100.00
65157;BME280;52745;49.794;18.258;2022-09-09T04:01:12;98699.34;;;14.37;100.00
65157;BME280;52745;49.794;18.258;2022-09-09T04:03:40;98702.31;;;14.35;100.00
65157;BME280;52745;49.794;18.258;2022-09-09T04:06:09;98704.97;;;14.30;100.00
65157;BME280;52745;49.794;18.258;2022-09-09T04:08:36;98701.22;;;14.31;100.00
65157;BME280;52745;49.794;18.258;2022-09-09T04:11:04;98701.75;;;14.33;100.00
65157;BME280;52745;49.794;18.258;2022-09-09T04:13:34;98703.91;;;14.36;100.00
65157;BME280;52745;49.794;18.258;2022-09-09T04:16:02;98694.78;;;14.37;100.00
65157;BME280;52745;49.794;18.258;2022-09-09T04:18:30;98689.69;;;14.41;100.00
65157;BME280;52745;49.794;18.258;2022-09-09T04:20:57;98691.31;;;14.42;100.00
65157;BME280;52745;49.794;18.258;2022-09-09T04:23:27;98688.34;;;14.43;100.00
65157;BME280;52745;49.794;18.258;2022-09-09T04:25:58;98689.16;;;14.44;100.00
65157;BME280;52745;49.794;18.258;2022-09-09T04:28:28;98689.97;;;14.44;100.00
65157;BME280;52745;49.794;18.258;2022-09-09T04:30:55;98689.16;;;14.44;100.00
65157;BME280;52745;49.794;18.258;2022-09-09T04:33:24;98695.06;;;14.46;100.00
65157;BME280;52745;49.794;18.258;2022-09-09T04:35:53;98698.81;;;14.45;100.00
65157;BME280;52745;49.794;18.258;2022-09-09T04:38:22;98705.28;;;14.44;100.00
65157;BME280;52745;49.794;18.258;2022-09-09T04:40:50;98702.84;;;14.42;100.00
65157;BME280;52745;49.794;18.258;2022-09-09T04:43:18;98696.13;;;14.40;100.00
65157;BME280;52745;49.794;18.258;2022-09-09T04:45:50;98708.47;;;14.41;100.00
65157;BME280;52745;49.794;18.258;2022-09-09T04:48:20;98708.22;;;14.42;100.00
65157;BME280;52745;49.794;18.258;2022-09-09T04:51:04;98705.53;;;14.47;100.00
65157;BME280;52745;49.794;18.258;2022-09-09T04:53:33;98719.25;;;14.46;100.00
65157;BME280;52745;49.794;18.258;2022-09-09T04:56:14;98713.59;;;14.42;100.00
65157;BME280;52745;49.794;18.258;2022-09-09T04:58:47;98722.19;;;14.39;100.00
65157;BME280;52745;49.794;18.258;2022-09-09T05:01:20;98727.56;;;14.39;100.00
65157;BME280;52745;49.794;18.258;2022-09-09T05:03:52;98721.41;;;14.44;100.00
65157;BME280;52745;49.794;18.258;2022-09-09T05:06:22;98719.50;;;14.49;100.00
65157;BME280;52745;49.794;18.258;2022-09-09T05:08:52;98733.81;;;14.55;100.00
65157;BME280;52745;49.794;18.258;2022-09-09T05:11:25;98721.72;;;14.68;100.00
65157;BME280;52745;49.794;18.258;2022-09-09T05:13:55;98725.50;;;14.77;100.00
65157;BME280;52745;49.794;18.258;2022-09-09T05:16:23;98717.97;;;14.84;100.00
65157;BME280;52745;49.794;18.258;2022-09-09T05:18:50;98724.94;;;14.96;100.00
65157;BME280;52745;49.794;18.258;2022-09-09T05:21:22;98728.44;;;14.96;100.00
65157;BME280;52745;49.794;18.258;2022-09-09T05:23:49;98737.31;;;14.92;100.00
65157;BME280;52745;49.794;18.258;2022-09-09T05:26:21;98740.28;;;14.90;100.00
65157;BME280;52745;49.794;18.258;2022-09-09T05:28:49;98735.97;;;14.84;100.00
65157;BME280;52745;49.794;18.258;2022-09-09T05:31:17;98731.66;;;14.78;100.00
65157;BME280;52745;49.794;18.258;2022-09-09T05:33:48;98730.88;;;14.77;100.00
65157;BME280;52745;49.794;18.258;2022-09-09T05:36:17;98735.19;;;14.83;100.00
65157;BME280;52745;49.794;18.258;2022-09-09T05:38:46;98721.75;;;14.88;100.00
65157;BME280;52745;49.794;18.258;2022-09-09T05:41:14;98726.56;;;14.92;100.00
65157;BME280;52745;49.794;18.258;2022-09-09T05:43:45;98733.00;;;15.01;100.00
65157;BME280;52745;49.794;18.258;2022-09-09T05:46:15;98731.13;;;15.06;100.00
65157;BME280;52745;49.794;18.258;2022-09-09T05:48:44;98722.28;;;15.06;100.00
65157;BME280;52745;49.794;18.258;2022-09-09T05:51:25;98725.50;;;15.08;100.00
65157;BME280;52745;49.794;18.258;2022-09-09T05:53:55;98728.44;;;15.17;100.00
65157;BME280;52745;49.794;18.258;2022-09-09T05:56:27;98727.09;;;15.09;100.00
65157;BME280;52745;49.794;18.258;2022-09-09T05:58:56;98727.38;;;15.13;100.00
65157;BME280;52745;49.794;18.258;2022-09-09T06:01:25;98718.25;;;15.03;100.00
65157;BME280;52745;49.794;18.258;2022-09-09T06:03:53;98731.66;;;14.98;100.00
65157;BME280;52745;49.794;18.258;2022-09-09T06:06:24;98733.31;;;14.99;100.00
65157;BME280;52745;49.794;18.258;2022-09-09T06:08:55;98737.59;;;15.10;100.00
65157;BME280;52745;49.794;18.258;2022-09-09T06:11:26;98734.38;;;15.19;100.00
65157;BME280;52745;49.794;18.258;2022-09-09T06:13:53;98733.84;;;15.17;100.00
65157;BME280;52745;49.794;18.258;2022-09-09T06:16:23;98719.84;;;15.04;100.00
65157;BME280;52745;49.794;18.258;2022-09-09T06:18:51;98723.34;;;15.10;100.00
65157;BME280;52745;49.794;18.258;2022-09-09T06:21:21;98723.59;;;15.14;100.00
65157;BME280;52745;49.794;18.258;2022-09-09T06:23:48;98724.16;;;15.10;100.00
65157;BME280;52745;49.794;18.258;2022-09-09T06:26:20;98717.44;;;15.08;100.00
65157;BME280;52745;49.794;18.258;2022-09-09T06:28:50;98723.88;;;15.07;100.00
65157;BME280;52745;49.794;18.258;2022-09-09T06:31:21;98718.78;;;14.95;100.00
65157;BME280;52745;49.794;18.258;2022-09-09T06:33:50;98714.19;;;15.01;100.00
65157;BME280;52745;49.794;18.258;2022-09-09T06:36:20;98715.53;;;15.14;100.00
65157;BME280;52745;49.794;18.258;2022-09-09T06:38:47;98707.19;;;15.30;100.00
65157;BME280;52745;49.794;18.258;2022-09-09T06:41:16;98714.13;;;15.47;100.00
65157;BME280;52745;49.794;18.258;2022-09-09T06:43:46;98713.03;;;15.53;100.00
65157;BME280;52745;49.794;18.258;2022-09-09T06:46:15;98708.97;;;15.61;100.00
65157;BME280;52745;49.794;18.258;2022-09-09T06:48:43;98719.75;;;15.66;100.00
65157;BME280;52745;49.794;18.258;2022-09-09T06:51:19;98723.78;;;15.73;100.00
65157;BME280;52745;49.794;18.258;2022-09-09T06:53:50;98723.78;;;15.79;100.00
65157;BME280;52745;49.794;18.258;2022-09-09T06:56:23;98726.69;;;15.92;100.00
65157;BME280;52745;49.794;18.258;2022-09-09T06:58:52;98726.38;;;15.99;100.00
65157;BME280;52745;49.794;18.258;2022-09-09T07:01:27;98724.19;;;16.06;100.00
65157;BME280;52745;49.794;18.258;2022-09-09T07:03:58;98734.16;;;16.06;99.93
65157;BME280;52745;49.794;18.258;2022-09-09T07:06:28;98729.78;;;16.20;99.68
65157;BME280;52745;49.794;18.258;2022-09-09T07:08:59;98726.28;;;16.20;99.25
65157;BME280;52745;49.794;18.258;2022-09-09T07:11:29;98728.22;;;16.14;99.29
65157;BME280;52745;49.794;18.258;2022-09-09T07:13:58;98730.91;;;16.09;98.91
65157;BME280;52745;49.794;18.258;2022-09-09T07:16:26;98733.63;;;16.04;99.95
65157;BME280;52745;49.794;18.258;2022-09-09T07:18:55;98738.22;;;15.98;99.96
65157;BME280;52745;49.794;18.258;2022-09-09T07:21:26;98740.66;;;16.00;100.00
65157;BME280;52745;49.794;18.258;2022-09-09T07:23:53;98730.88;;;16.19;99.15
65157;BME280;52745;49.794;18.258;2022-09-09T07:26:23;98734.50;;;16.44;98.06
65157;BME280;52745;49.794;18.258;2022-09-09T07:28:52;98725.69;;;16.72;97.88
65157;BME280;52745;49.794;18.258;2022-09-09T07:31:26;98730.28;;;17.11;95.55
65157;BME280;52745;49.794;18.258;2022-09-09T07:33:54;98732.66;;;17.42;92.25
65157;BME280;52745;49.794;18.258;2022-09-09T07:36:26;98727.34;;;17.61;90.91
65157;BME280;52745;49.794;18.258;2022-09-09T07:39:03;98720.69;;;17.83;90.51
65157;BME280;52745;49.794;18.258;2022-09-09T07:41:38;98722.84;;;18.05;89.19
65157;BME280;52745;49.794;18.258;2022-09-09T07:44:06;98732.63;;;18.19;88.11
65157;BME280;52745;49.794;18.258;2022-09-09T07:46:34;98730.94;;;18.24;87.44
65157;BME280;52745;49.794;18.258;2022-09-09T07:49:01;98734.72;;;18.47;86.95
65157;BME280;52745;49.794;18.258;2022-09-09T07:51:32;98734.97;;;18.64;86.15
65157;BME280;52745;49.794;18.258;2022-09-09T07:54:02;98735.81;;;19.16;83.51
65157;BME280;52745;49.794;18.258;2022-09-09T07:56:32;98742.44;;;20.26;78.98
65157;BME280;52745;49.794;18.258;2022-09-09T07:58:59;98749.34;;;21.59;73.22
65157;BME280;52745;49.794;18.258;2022-09-09T08:01:46;98748.31;;;22.35;68.63
65157;BME280;52745;49.794;18.258;2022-09-09T08:04:18;98740.19;;;22.69;65.32
65157;BME280;52745;49.794;18.258;2022-09-09T08:06:54;98745.94;;;22.59;64.63
65157;BME280;52745;49.794;18.258;2022-09-09T08:09:23;98746.59;;;23.64;61.84
65157;BME280;52745;49.794;18.258;2022-09-09T08:11:57;98749.06;;;24.25;57.81
65157;BME280;52745;49.794;18.258;2022-09-09T08:14:25;98755.78;;;23.98;58.71
65157;BME280;52745;49.794;18.258;2022-09-09T08:16:52;98757.66;;;23.77;57.93
65157;BME280;52745;49.794;18.258;2022-09-09T08:19:22;98750.84;;;23.91;58.32
65157;BME280;52745;49.794;18.258;2022-09-09T08:21:49;98751.38;;;23.85;57.83
65157;BME280;52745;49.794;18.258;2022-09-09T08:24:17;98755.00;;;23.42;58.63
65157;BME280;52745;49.794;18.258;2022-09-09T08:26:49;98743.84;;;23.73;59.44
65157;BME280;52745;49.794;18.258;2022-09-09T08:29:18;98744.38;;;24.05;60.75
65157;BME280;52745;49.794;18.258;2022-09-09T08:31:48;98739.38;;;25.45;54.29
65157;BME280;52745;49.794;18.258;2022-09-09T08:34:15;98741.19;;;26.52;53.03
65157;BME280;52745;49.794;18.258;2022-09-09T08:36:44;98731.41;;;27.83;47.85
65157;BME280;52745;49.794;18.258;2022-09-09T08:39:14;98728.84;;;28.06;47.57
65157;BME280;52745;49.794;18.258;2022-09-09T08:42:01;98730.03;;;28.24;43.34
65157;BME280;52745;49.794;18.258;2022-09-09T08:44:42;98726.44;;;29.14;41.17
65157;BME280;52745;49.794;18.258;2022-09-09T08:50:16;98720.81;;;28.33;43.21
65157;BME280;52745;49.794;18.258;2022-09-09T08:52:57;98719.34;;;28.19;44.59
65157;BME280;52745;49.794;18.258;2022-09-09T08:58:12;98712.19;;;25.73;51.68
65157;BME280;52745;49.794;18.258;2022-09-09T09:03:33;98720.75;;;24.60;54.89
65157;BME280;52745;49.794;18.258;2022-09-09T09:09:10;98709.84;;;26.49;47.88
65157;BME280;52745;49.794;18.258;2022-09-09T09:11:40;98706.72;;;26.10;49.07
65157;BME280;52745;49.794;18.258;2022-09-09T09:14:23;98708.22;;;25.71;49.73
65157;BME280;52745;49.794;18.258;2022-09-09T09:19:25;98697.72;;;25.60;50.49
65157;BME280;52745;49.794;18.258;2022-09-09T09:22:04;98700.44;;;25.48;51.87
65157;BME280;52745;49.794;18.258;2022-09-09T09:24:45;98708.78;;;25.76;50.50
65157;BME280;52745;49.794;18.258;2022-09-09T09:27:31;98712.28;;;27.23;47.39
65157;BME280;52745;49.794;18.258;2022-09-09T09:30:00;98718.09;;;26.37;47.58
65157;BME280;52745;49.794;18.258;2022-09-09T09:32:33;98717.47;;;25.91;49.17
65157;BME280;52745;49.794;18.258;2022-09-09T09:35:06;98727.72;;;27.59;45.84
65157;BME280;52745;49.794;18.258;2022-09-09T09:37:35;98743.34;;;26.71;46.30
65157;BME280;52745;49.794;18.258;2022-09-09T09:40:16;98725.97;;;26.26;47.99
65157;BME280;52745;49.794;18.258;2022-09-09T09:42:56;98738.13;;;25.55;49.19
65157;BME280;52745;49.794;18.258;2022-09-09T09:45:46;98735.06;;;28.03;43.39
65157;BME280;52745;49.794;18.258;2022-09-09T09:48:14;98735.78;;;29.09;41.22
65157;BME280;52745;49.794;18.258;2022-09-09T09:50:51;98738.81;;;29.70;41.48
65157;BME280;52745;49.794;18.258;2022-09-09T09:53:32;98736.91;;;30.84;37.58
65157;BME280;52745;49.794;18.258;2022-09-09T09:56:05;98744.16;;;30.96;35.20
65157;BME280;52745;49.794;18.258;2022-09-09T10:01:22;98750.69;;;30.54;36.38
65157;BME280;52745;49.794;18.258;2022-09-09T10:06:33;98743.59;;;30.53;35.35
65157;BME280;52745;49.794;18.258;2022-09-09T10:09:02;98754.09;;;30.17;34.45
65157;BME280;52745;49.794;18.258;2022-09-09T10:11:46;98753.47;;;29.32;37.24
65157;BME280;52745;49.794;18.258;2022-09-09T10:14:30;98749.19;;;28.76;37.96
65157;BME280;52745;49.794;18.258;2022-09-09T10:17:20;98746.75;;;28.71;38.52
65157;BME280;52745;49.794;18.258;2022-09-09T10:20:16;98738.84;;;30.50;33.94
65157;BME280;52745;49.794;18.258;2022-09-09T10:22:44;98735.63;;;30.44;34.07
65157;BME280;52745;49.794;18.258;2022-09-09T10:25:34;98732.59;;;30.26;33.92
65157;BME280;52745;49.794;18.258;2022-09-09T10:31:21;98737.91;;;30.39;34.28
65157;BME280;52745;49.794;18.258;2022-09-09T10:33:55;98738.00;;;29.92;34.62
65157;BME280;52745;49.794;18.258;2022-09-09T10:36:24;98735.69;;;30.82;33.93
65157;BME280;52745;49.794;18.258;2022-09-09T10:39:03;98725.16;;;30.57;35.02
65157;BME280;52745;49.794;18.258;2022-09-09T10:44:19;98733.34;;;29.97;36.80
65157;BME280;52745;49.794;18.258;2022-09-09T10:47:20;98726.72;;;29.75;35.15
65157;BME280;52745;49.794;18.258;2022-09-09T10:55:11;98724.72;;;30.25;34.99
65157;BME280;52745;49.794;18.258;2022-09-09T11:00:23;98735.66;;;29.95;34.35
65157;BME280;52745;49.794;18.258;2022-09-09T11:02:56;98731.53;;;29.58;35.35
65157;BME280;52745;49.794;18.258;2022-09-09T11:05:32;98738.78;;;29.24;35.32
65157;BME280;52745;49.794;18.258;2022-09-09T11:08:10;98738.53;;;28.35;38.10
65157;BME280;52745;49.794;18.258;2022-09-09T11:11:00;98735.56;;;27.29;39.35
65157;BME280;52745;49.794;18.258;2022-09-09T11:13:55;98732.94;;;27.04;38.35
65157;BME280;52745;49.794;18.258;2022-09-09T11:16:36;98730.38;;;27.12;38.79
65157;BME280;52745;49.794;18.258;2022-09-09T11:21:53;98735.06;;;26.83;39.44
65157;BME280;52745;49.794;18.258;2022-09-09T11:24:38;98732.03;;;27.00;39.44
65157;BME280;52745;49.794;18.258;2022-09-09T11:30:23;98735.97;;;26.34;40.76
65157;BME280;52745;49.794;18.258;2022-09-09T11:33:03;98733.22;;;26.59;40.56
65157;BME280;52745;49.794;18.258;2022-09-09T11:35:52;98734.41;;;25.72;39.03
65157;BME280;52745;49.794;18.258;2022-09-09T11:38:32;98739.50;;;25.49;39.41
65157;BME280;52745;49.794;18.258;2022-09-09T11:41:07;98739.16;;;25.17;40.12
65157;BME280;52745;49.794;18.258;2022-09-09T11:46:08;98737.25;;;25.17;39.87
65157;BME280;52745;49.794;18.258;2022-09-09T11:48:36;98737.34;;;25.42;41.69
65157;BME280;52745;49.794;18.258;2022-09-09T11:51:05;98737.94;;;25.60;41.01
65157;BME280;52745;49.794;18.258;2022-09-09T11:56:27;98733.13;;;25.45;42.43
65157;BME280;52745;49.794;18.258;2022-09-09T12:01:28;98743.97;;;25.66;41.05
65157;BME280;52745;49.794;18.258;2022-09-09T12:06:33;98745.22;;;25.80;37.17
65157;BME280;52745;49.794;18.258;2022-09-09T12:09:46;98735.78;;;25.90;37.11
65157;BME280;52745;49.794;18.258;2022-09-09T12:17:20;98735.44;;;25.67;37.36
65157;BME280;52745;49.794;18.258;2022-09-09T12:20:11;98740.81;;;25.30;37.82
65157;BME280;52745;49.794;18.258;2022-09-09T12:22:55;98735.25;;;25.06;38.87
65157;BME280;52745;49.794;18.258;2022-09-09T12:28:19;98730.31;;;24.66;38.80
65157;BME280;52745;49.794;18.258;2022-09-09T12:31:00;98721.16;;;24.49;38.70
65157;BME280;52745;49.794;18.258;2022-09-09T12:33:37;98727.22;;;24.46;40.03
65157;BME280;52745;49.794;18.258;2022-09-09T12:36:31;98718.84;;;24.30;40.11
65157;BME280;52745;49.794;18.258;2022-09-09T12:38:59;98718.91;;;24.51;41.05
65157;BME280;52745;49.794;18.258;2022-09-09T12:41:37;98715.16;;;24.56;42.29
65157;BME280;52745;49.794;18.258;2022-09-09T12:44:06;98714.47;;;24.38;43.65
65157;BME280;52745;49.794;18.258;2022-09-09T12:46:36;98724.25;;;24.39;42.27
65157;BME280;52745;49.794;18.258;2022-09-09T12:49:04;98717.34;;;24.63;41.42
65157;BME280;52745;49.794;18.258;2022-09-09T12:51:32;98715.63;;;24.58;41.74
65157;BME280;52745;49.794;18.258;2022-09-09T12:53:59;98705.47;;;24.79;42.36
65157;BME280;52745;49.794;18.258;2022-09-09T12:56:29;98705.56;;;24.71;41.28
65157;BME280;52745;49.794;18.258;2022-09-09T12:58:58;98702.47;;;24.93;43.64
65157;BME280;52745;49.794;18.258;2022-09-09T13:01:30;98709.63;;;24.65;41.65
65157;BME280;52745;49.794;18.258;2022-09-09T13:03:57;98711.69;;;24.68;42.41
65157;BME280;52745;49.794;18.258;2022-09-09T13:06:31;98702.66;;;24.88;43.18
65157;BME280;52745;49.794;18.258;2022-09-09T13:09:01;98701.44;;;24.65;42.05
65157;BME280;52745;49.794;18.258;2022-09-09T13:11:38;98699.59;;;24.56;42.45
65157;BME280;52745;49.794;18.258;2022-09-09T13:14:05;98708.09;;;24.76;44.17
65157;BME280;52745;49.794;18.258;2022-09-09T13:16:34;98711.66;;;24.55;43.83
65157;BME280;52745;49.794;18.258;2022-09-09T13:21:40;98697.91;;;23.92;44.02
65157;BME280;52745;49.794;18.258;2022-09-09T13:24:33;98694.81;;;24.03;45.01
65157;BME280;52745;49.794;18.258;2022-09-09T13:27:27;98679.72;;;24.05;44.64
65157;BME280;52745;49.794;18.258;2022-09-09T13:29:57;98683.66;;;24.16;45.10
65157;BME280;52745;49.794;18.258;2022-09-09T13:32:25;98676.09;;;24.22;46.91
65157;BME280;52745;49.794;18.258;2022-09-09T13:34:56;98664.63;;;24.29;42.87
65157;BME280;52745;49.794;18.258;2022-09-09T13:37:37;98668.47;;;24.28;42.05
65157;BME280;52745;49.794;18.258;2022-09-09T13:40:06;98658.72;;;24.48;43.57
65157;BME280;52745;49.794;18.258;2022-09-09T13:42:36;98652.97;;;24.62;43.93
65157;BME280;52745;49.794;18.258;2022-09-09T13:45:05;98650.59;;;24.60;42.25
65157;BME280;52745;49.794;18.258;2022-09-09T13:47:33;98652.50;;;24.38;41.82
65157;BME280;52745;49.794;18.258;2022-09-09T13:50:36;98648.81;;;24.22;42.35
65157;BME280;52745;49.794;18.258;2022-09-09T13:53:02;98640.63;;;24.22;43.02
65157;BME280;52745;49.794;18.258;2022-09-09T13:55:30;98643.88;;;24.15;42.63
65157;BME280;52745;49.794;18.258;2022-09-09T13:57:57;98638.50;;;24.07;42.63
65157;BME280;52745;49.794;18.258;2022-09-09T14:00:24;98639.66;;;23.97;43.22
65157;BME280;52745;49.794;18.258;2022-09-09T14:02:51;98640.06;;;23.87;44.13
65157;BME280;52745;49.794;18.258;2022-09-09T14:05:18;98632.28;;;23.77;47.94
65157;BME280;52745;49.794;18.258;2022-09-09T14:07:46;98631.53;;;23.59;47.53
65157;BME280;52745;49.794;18.258;2022-09-09T14:10:12;98638.94;;;23.58;48.53
65157;BME280;52745;49.794;18.258;2022-09-09T14:12:39;98637.03;;;23.50;45.56
65157;BME280;52745;49.794;18.258;2022-09-09T14:15:07;98636.09;;;23.46;44.32
65157;BME280;52745;49.794;18.258;2022-09-09T14:17:34;98630.84;;;23.41;46.30
65157;BME280;52745;49.794;18.258;2022-09-09T14:20:05;98633.28;;;23.33;44.78
65157;BME280;52745;49.794;18.258;2022-09-09T14:22:36;98630.88;;;23.32;46.21
65157;BME280;52745;49.794;18.258;2022-09-09T14:25:03;98632.50;;;23.24;45.33
65157;BME280;52745;49.794;18.258;2022-09-09T14:27:29;98627.53;;;23.26;43.80
65157;BME280;52745;49.794;18.258;2022-09-09T14:29:56;98633.47;;;23.20;44.45
65157;BME280;52745;49.794;18.258;2022-09-09T14:32:23;98638.31;;;23.14;45.01
65157;BME280;52745;49.794;18.258;2022-09-09T14:34:50;98635.59;;;23.14;45.20
65157;BME280;52745;49.794;18.258;2022-09-09T14:37:17;98644.38;;;23.20;46.58
65157;BME280;52745;49.794;18.258;2022-09-09T14:39:44;98640.84;;;23.19;44.73
65157;BME280;52745;49.794;18.258;2022-09-09T14:42:10;98643.91;;;23.09;45.54
65157;BME280;52745;49.794;18.258;2022-09-09T14:44:37;98640.91;;;23.02;44.39
65157;BME280;52745;49.794;18.258;2022-09-09T14:47:07;98648.44;;;23.05;45.41
65157;BME280;52745;49.794;18.258;2022-09-09T14:49:35;98642.66;;;23.06;46.38
65157;BME280;52745;49.794;18.258;2022-09-09T14:52:02;98643.13;;;23.08;45.98
65157;BME280;52745;49.794;18.258;2022-09-09T14:54:28;98638.47;;;23.09;45.81
65157;BME280;52745;49.794;18.258;2022-09-09T14:56:55;98646.97;;;22.99;46.72